Anchorville, Michigan
Current Conditions -  °F | °C
As of 12:58 AM on Wednesday 28 Jan 2015 (Local Time) from KMTC Reporting Station
Clear Clear  
Wind Chill: -15°   Ceiling: Unl
Heat Index: -10°   Visibility: 10mi
Dew Point: -13°   Wind: 7mph
Humidity: 77%   Direction: 310°NW
Pressure: 30.2"   Gusts: NA
Location:  42.69°N, 82.7°W
Report Text: KMTC 280558Z AUTO 31006KT 10SM CLR M10/M13 A3020 RMK AO2 SLP241 T10961129 11069 21096 53005 $
Loading
Personal Weather Stations






























Interactive Weather Map New forecast layout! Learn more

10-Day Weather Forecast

Advertisements
Track Severe Weather on mobile